createdAt,value
2022-11-12T00:00:13.093Z,62.17
2022-11-12T00:01:04.940Z,61.99
2022-11-12T00:01:36.830Z,61.11
2022-11-12T00:02:08.806Z,60.69
2022-11-12T00:02:40.849Z,60.41
2022-11-12T00:03:12.739Z,60.12
2022-11-12T00:03:44.688Z,59.88
2022-11-12T00:04:16.446Z,59.76
2022-11-12T00:04:48.144Z,59.58
2022-11-12T00:05:20.051Z,59.31
2022-11-12T00:05:52.864Z,58.93
2022-11-12T00:06:24.727Z,58.67
2022-11-12T00:06:56.594Z,58.75
2022-11-12T00:07:28.344Z,59.00
2022-11-12T00:08:00.598Z,59.42
2022-11-12T00:08:32.485Z,59.86
2022-11-12T00:09:04.287Z,60.33
2022-11-12T00:09:36.154Z,60.85
2022-11-12T00:10:08.616Z,61.35
2022-11-12T00:10:40.369Z,61.81
2022-11-12T00:11:12.241Z,62.31
2022-11-12T00:11:44.021Z,62.76
2022-11-12T00:12:16.476Z,63.30
2022-11-12T00:12:48.864Z,63.55
2022-11-12T00:13:20.784Z,63.43
2022-11-12T00:13:52.813Z,63.04
2022-11-12T00:14:24.671Z,62.48
2022-11-12T00:14:56.804Z,61.82
2022-11-12T00:15:28.754Z,61.16
2022-11-12T00:16:00.793Z,60.47
2022-11-12T00:16:32.601Z,59.79
2022-11-12T00:17:04.637Z,59.22
2022-11-12T00:17:36.556Z,58.57
2022-11-12T00:18:08.615Z,58.22
2022-11-12T00:18:40.684Z,58.20
2022-11-12T00:19:12.535Z,58.51
2022-11-12T00:19:44.363Z,58.92
2022-11-12T00:20:16.314Z,59.40
2022-11-12T00:20:48.596Z,59.93
2022-11-12T00:21:20.569Z,60.53
2022-11-12T00:21:52.401Z,61.07
2022-11-12T00:22:24.237Z,61.63
2022-11-12T00:22:56.163Z,62.19
2022-11-12T00:23:28.031Z,62.68
2022-11-12T00:23:59.914Z,63.16
2022-11-12T00:24:31.852Z,63.40
2022-11-12T00:25:04.553Z,63.17
2022-11-12T00:25:36.650Z,62.70
2022-11-12T00:26:08.493Z,61.97
2022-11-12T00:26:40.329Z,61.18
2022-11-12T00:27:12.256Z,60.43
2022-11-12T00:27:44.243Z,59.67
2022-11-12T00:28:16.124Z,58.88
2022-11-12T00:28:47.854Z,58.12
2022-11-12T00:29:19.750Z,57.65
2022-11-12T00:29:51.533Z,57.62
2022-11-12T00:30:23.462Z,57.89
2022-11-12T00:30:55.358Z,58.35
2022-11-12T00:31:27.184Z,58.83
2022-11-12T00:31:59.048Z,59.32
2022-11-12T00:32:30.998Z,59.86
2022-11-12T00:33:04.102Z,60.40
2022-11-12T00:33:40.727Z,60.97
2022-11-12T00:34:12.539Z,61.46
2022-11-12T00:34:44.336Z,62.15
2022-11-12T00:35:16.345Z,62.60
2022-11-12T00:35:49.139Z,63.14
2022-11-12T00:36:21.215Z,63.41
2022-11-12T00:36:52.974Z,63.19
2022-11-12T00:37:24.800Z,62.66
2022-11-12T00:37:57.405Z,61.96
2022-11-12T00:38:30.624Z,61.15
2022-11-12T00:39:04.067Z,60.41
2022-11-12T00:39:35.917Z,59.56
2022-11-12T00:40:08.597Z,58.61
2022-11-12T00:40:41.719Z,57.75
2022-11-12T00:41:13.606Z,57.34
2022-11-12T00:41:45.447Z,57.37
2022-11-12T00:42:17.274Z,57.69
2022-11-12T00:42:51.762Z,58.18
2022-11-12T00:43:24.576Z,58.72
2022-11-12T00:43:56.556Z,59.37
2022-11-12T00:44:29.044Z,59.98
2022-11-12T00:45:01.029Z,60.55
2022-11-12T00:45:32.890Z,61.14
2022-11-12T00:46:04.804Z,61.72
2022-11-12T00:46:36.605Z,62.23
2022-11-12T00:47:08.474Z,62.80
2022-11-12T00:47:40.562Z,63.37
2022-11-12T00:48:12.369Z,63.59
2022-11-12T00:48:44.147Z,63.32
2022-11-12T00:49:16.253Z,62.61
2022-11-12T00:49:48.130Z,61.84
2022-11-12T00:50:20.318Z,60.95
2022-11-12T00:50:59.032Z,60.07
2022-11-12T00:51:30.817Z,59.48
2022-11-12T00:52:02.734Z,58.01
2022-11-12T00:52:34.473Z,57.40
2022-11-12T00:53:06.418Z,57.31
2022-11-12T00:53:38.436Z,57.54
2022-11-12T00:54:10.490Z,58.01
2022-11-12T00:54:42.227Z,58.53
2022-11-12T00:55:14.166Z,59.15
2022-11-12T00:55:46.111Z,59.75
2022-11-12T00:56:18.011Z,60.39
2022-11-12T00:56:49.819Z,60.96
2022-11-12T00:57:21.757Z,61.54
2022-11-12T00:57:53.629Z,62.09
2022-11-12T00:58:29.872Z,62.62
2022-11-12T00:59:01.884Z,63.31
2022-11-12T00:59:33.964Z,63.47
2022-11-12T01:00:06.873Z,63.21
2022-11-12T01:00:38.838Z,62.55
2022-11-12T01:01:13.619Z,61.58
2022-11-12T01:01:45.440Z,60.79
2022-11-12T01:02:17.192Z,59.77
2022-11-12T01:02:51.359Z,58.83
2022-11-12T01:03:24.174Z,57.88
2022-11-12T01:03:58.160Z,57.34
2022-11-12T01:04:30.088Z,57.30
2022-11-12T01:05:01.845Z,57.60
2022-11-12T01:05:34.197Z,58.10
2022-11-12T01:06:15.100Z,58.66
2022-11-12T01:06:46.923Z,59.26
2022-11-12T01:07:18.764Z,60.04
2022-11-12T01:07:55.651Z,60.68
2022-11-12T01:08:29.462Z,61.19
2022-11-12T01:09:01.617Z,61.83
2022-11-12T01:09:33.390Z,62.45
2022-11-12T01:10:05.614Z,63.03
2022-11-12T01:10:37.577Z,63.60
2022-11-12T01:11:18.333Z,63.71
2022-11-12T01:11:50.094Z,64.96
2022-11-12T01:12:22.052Z,64.36
2022-11-12T01:12:54.490Z,61.93
2022-11-12T01:13:26.382Z,60.89
2022-11-12T01:14:01.335Z,59.82
2022-11-12T01:14:33.439Z,58.97
2022-11-12T01:15:06.448Z,57.78
2022-11-12T01:15:42.355Z,57.27
2022-11-12T01:16:19.272Z,57.25
2022-11-12T01:16:51.264Z,57.55
2022-11-12T01:17:23.007Z,58.13
2022-11-12T01:17:54.727Z,58.76
2022-11-12T01:18:27.003Z,59.38
2022-11-12T01:19:00.825Z,59.99
2022-11-12T01:19:32.778Z,60.57
2022-11-12T01:20:05.041Z,61.19
2022-11-12T01:20:38.630Z,61.72
2022-11-12T01:21:11.076Z,62.28
2022-11-12T01:21:43.849Z,62.87
2022-11-12T01:22:15.944Z,63.47
2022-11-12T01:22:47.839Z,63.59
2022-11-12T01:23:19.691Z,63.10
2022-11-12T01:23:51.640Z,62.49
2022-11-12T01:24:23.381Z,61.67
2022-11-12T01:24:55.249Z,60.75
2022-11-12T01:25:26.979Z,59.83
2022-11-12T01:26:02.982Z,58.93
2022-11-12T01:26:35.016Z,57.99
2022-11-12T01:27:06.937Z,57.50
2022-11-12T01:27:38.814Z,57.54
2022-11-12T01:28:10.584Z,57.86
2022-11-12T01:28:43.109Z,58.36
2022-11-12T01:29:14.909Z,58.93
2022-11-12T01:29:46.655Z,59.52
2022-11-12T01:30:18.627Z,60.12
2022-11-12T01:30:50.536Z,60.82
2022-11-12T01:31:24.982Z,61.42
2022-11-12T01:31:56.807Z,62.00
2022-11-12T01:32:29.005Z,62.62
2022-11-12T01:33:00.750Z,63.23
2022-11-12T01:33:32.564Z,63.71
2022-11-12T01:34:09.352Z,63.71
2022-11-12T01:34:41.501Z,63.50
2022-11-12T01:35:13.275Z,62.45
2022-11-12T01:35:45.156Z,61.53
2022-11-12T01:36:18.899Z,60.55
2022-11-12T01:36:51.167Z,59.74
2022-11-12T01:37:22.958Z,58.62
2022-11-12T01:37:54.700Z,57.63
2022-11-12T01:38:26.745Z,57.14
2022-11-12T01:38:58.881Z,57.08
2022-11-12T01:39:30.678Z,57.36
2022-11-12T01:40:02.686Z,57.86
2022-11-12T01:40:34.419Z,58.46
2022-11-12T01:41:08.648Z,59.11
2022-11-12T01:41:41.522Z,59.73
2022-11-12T01:42:13.318Z,60.46
2022-11-12T01:42:52.098Z,61.13
2022-11-12T01:43:23.930Z,61.67
2022-11-12T01:44:23.079Z,62.40
2022-11-12T01:44:54.991Z,63.08
2022-11-12T01:45:26.809Z,63.52
2022-11-12T01:46:01.596Z,63.15
2022-11-12T01:46:36.659Z,62.56
2022-11-12T01:47:25.243Z,61.63
2022-11-12T01:47:57.099Z,61.17
2022-11-12T01:48:34.449Z,59.32
2022-11-12T01:49:11.187Z,58.52
2022-11-12T01:50:01.089Z,57.39
2022-11-12T01:50:35.681Z,56.97
2022-11-12T01:51:09.760Z,57.27
2022-11-12T01:51:46.090Z,57.76
2022-11-12T01:52:20.697Z,58.33
2022-11-12T01:52:57.811Z,59.08
2022-11-12T01:53:34.689Z,59.70
2022-11-12T01:54:10.587Z,60.49
2022-11-12T01:54:46.478Z,61.13
2022-11-12T01:55:30.370Z,61.72
2022-11-12T01:56:05.045Z,62.08
2022-11-12T01:56:40.515Z,62.96
2022-11-12T01:57:15.950Z,63.71
2022-11-12T01:57:58.413Z,63.71
2022-11-12T01:58:33.799Z,63.55
2022-11-12T01:59:11.400Z,62.28
2022-11-12T01:59:46.434Z,61.38
2022-11-12T02:00:18.381Z,60.21
2022-11-12T02:00:50.661Z,59.07
2022-11-12T02:01:22.612Z,58.02
2022-11-12T02:01:54.433Z,57.44
2022-11-12T02:02:27.127Z,57.25
2022-11-12T02:03:02.009Z,57.42
2022-11-12T02:03:33.861Z,57.81
2022-11-12T02:04:05.794Z,58.39
2022-11-12T02:04:41.754Z,59.02
2022-11-12T02:05:15.554Z,59.55
2022-11-12T02:05:59.274Z,60.23
2022-11-12T02:06:32.428Z,60.67
2022-11-12T02:07:05.881Z,61.55
2022-11-12T02:07:40.492Z,62.11
2022-11-12T02:08:13.216Z,62.58
2022-11-12T02:08:45.576Z,63.24
2022-11-12T02:09:17.626Z,63.38
2022-11-12T02:09:49.841Z,63.02
2022-11-12T02:10:21.969Z,62.32
2022-11-12T02:10:53.770Z,61.38
2022-11-12T02:11:25.489Z,60.38
2022-11-12T02:11:59.018Z,59.42
2022-11-12T02:12:49.479Z,58.44
2022-11-12T02:13:40.489Z,57.49
2022-11-12T02:14:12.831Z,56.97
2022-11-12T02:14:44.658Z,57.42
2022-11-12T02:15:16.714Z,57.87
2022-11-12T02:15:48.705Z,58.40
2022-11-12T02:16:20.528Z,58.96
2022-11-12T02:16:52.792Z,59.56
2022-11-12T02:17:24.648Z,60.16
2022-11-12T02:17:56.969Z,60.74
2022-11-12T02:18:29.069Z,61.30
2022-11-12T02:19:02.322Z,61.83
2022-11-12T02:19:37.288Z,62.37
2022-11-12T02:20:10.541Z,62.91
2022-11-12T02:20:42.433Z,63.48
2022-11-12T02:21:14.136Z,63.52
2022-11-12T02:21:46.314Z,63.06
2022-11-12T02:22:18.461Z,62.29
2022-11-12T02:22:50.679Z,61.37
2022-11-12T02:23:22.550Z,60.33
2022-11-12T02:24:02.567Z,59.42
2022-11-12T02:24:36.354Z,58.69
2022-11-12T02:25:17.594Z,57.38
2022-11-12T02:25:49.568Z,56.96
2022-11-12T02:26:21.491Z,57.09
2022-11-12T02:26:55.149Z,57.48
2022-11-12T02:27:27.872Z,58.01
2022-11-12T02:28:02.322Z,58.62
2022-11-12T02:28:34.168Z,59.14
2022-11-12T02:29:05.995Z,59.81
2022-11-12T02:29:45.686Z,60.38
2022-11-12T02:30:18.966Z,60.86
2022-11-12T02:30:50.758Z,61.61
2022-11-12T02:31:22.617Z,62.22
2022-11-12T02:31:54.433Z,62.70
2022-11-12T02:32:26.173Z,63.24
2022-11-12T02:32:58.386Z,63.40
2022-11-12T02:33:30.104Z,63.16
2022-11-12T02:34:02.222Z,62.53
2022-11-12T02:34:34.091Z,61.82
2022-11-12T02:35:06.453Z,60.97
2022-11-12T02:35:38.389Z,60.21
2022-11-12T02:36:10.132Z,59.40
2022-11-12T02:36:42.665Z,58.63
2022-11-12T02:37:14.935Z,57.84
2022-11-12T02:37:46.607Z,57.49
2022-11-12T02:38:18.469Z,57.54
2022-11-12T02:38:50.385Z,57.87
2022-11-12T02:39:22.322Z,58.33
2022-11-12T02:39:54.186Z,58.88
2022-11-12T02:40:26.063Z,59.43
2022-11-12T02:40:57.722Z,60.06
2022-11-12T02:41:29.577Z,60.63
2022-11-12T02:42:01.697Z,61.14
2022-11-12T02:42:33.628Z,61.65
2022-11-12T02:43:05.428Z,62.18
2022-11-12T02:43:37.407Z,62.66
2022-11-12T02:44:09.355Z,63.22
2022-11-12T02:44:41.395Z,63.50
2022-11-12T02:45:13.304Z,63.35
2022-11-12T02:45:45.112Z,62.83
2022-11-12T02:46:17.115Z,62.14
2022-11-12T02:46:48.871Z,61.27
2022-11-12T02:47:20.719Z,60.41
2022-11-12T02:47:52.683Z,59.62
2022-11-12T02:48:24.328Z,58.81
2022-11-12T02:48:56.128Z,58.04
2022-11-12T02:49:27.935Z,57.66
2022-11-12T02:49:59.697Z,57.68
2022-11-12T02:50:31.355Z,57.96
2022-11-12T02:51:03.351Z,58.37
2022-11-12T02:51:35.210Z,58.94
2022-11-12T02:52:06.885Z,59.53
2022-11-12T02:52:39.566Z,60.07
2022-11-12T02:53:11.239Z,60.64
2022-11-12T02:53:42.989Z,61.24
2022-11-12T02:54:14.908Z,61.81
2022-11-12T02:54:46.811Z,62.31
2022-11-12T02:55:18.688Z,62.79
2022-11-12T02:55:50.928Z,63.32
2022-11-12T02:56:22.686Z,63.49
2022-11-12T02:56:54.463Z,63.20
2022-11-12T02:57:26.859Z,62.62
2022-11-12T02:57:59.206Z,61.94
2022-11-12T02:58:30.957Z,61.18
2022-11-12T02:59:03.044Z,60.39
2022-11-12T02:59:34.851Z,59.69
2022-11-12T03:00:11.083Z,58.98
2022-11-12T03:00:42.967Z,58.22
2022-11-12T03:01:14.889Z,57.83
2022-11-12T03:01:47.131Z,57.90
2022-11-12T03:02:19.006Z,58.24
2022-11-12T03:02:59.577Z,58.73
2022-11-12T03:03:31.361Z,59.12
2022-11-12T03:04:03.381Z,59.94
2022-11-12T03:04:35.137Z,60.51
2022-11-12T03:05:07.483Z,61.12
2022-11-12T03:05:39.440Z,61.67
2022-11-12T03:06:11.456Z,62.26
2022-11-12T03:06:43.441Z,62.80
2022-11-12T03:07:15.529Z,63.36
2022-11-12T03:07:47.328Z,63.64
2022-11-12T03:08:19.239Z,63.50
2022-11-12T03:08:51.003Z,63.00
2022-11-12T03:09:23.316Z,62.43
2022-11-12T03:09:55.195Z,61.82
2022-11-12T03:10:28.392Z,61.24
2022-11-12T03:11:08.912Z,60.70
2022-11-12T03:11:40.773Z,60.36
2022-11-12T03:12:12.438Z,59.54
2022-11-12T03:12:44.168Z,59.01
2022-11-12T03:13:16.141Z,58.54
2022-11-12T03:13:48.024Z,58.43
2022-11-12T03:14:20.327Z,58.59
2022-11-12T03:14:52.125Z,58.97
2022-11-12T03:15:24.442Z,59.40
2022-11-12T03:16:00.547Z,59.90
2022-11-12T03:16:32.439Z,60.43
2022-11-12T03:17:04.782Z,61.15
2022-11-12T03:17:36.613Z,61.70
2022-11-12T03:18:08.411Z,62.27
2022-11-12T03:18:40.206Z,62.85
2022-11-12T03:19:12.147Z,63.41
2022-11-12T03:19:43.929Z,63.66
2022-11-12T03:20:16.008Z,63.56
2022-11-12T03:20:51.395Z,63.22
2022-11-12T03:21:23.397Z,62.82
2022-11-12T03:21:55.247Z,62.23
2022-11-12T03:22:27.051Z,61.65
2022-11-12T03:23:01.744Z,61.14
2022-11-12T03:23:33.675Z,60.74
2022-11-12T03:24:05.788Z,60.11
2022-11-12T03:24:37.629Z,59.55
2022-11-12T03:25:09.755Z,59.04
2022-11-12T03:25:41.615Z,58.58
2022-11-12T03:26:13.303Z,58.40
2022-11-12T03:26:45.244Z,58.55
2022-11-12T03:27:17.073Z,58.97
2022-11-12T03:27:48.813Z,59.45
2022-11-12T03:28:20.819Z,60.01
2022-11-12T03:28:53.093Z,60.58
2022-11-12T03:29:25.820Z,61.15
2022-11-12T03:29:57.607Z,61.66
2022-11-12T03:30:32.644Z,62.29
2022-11-12T03:31:04.721Z,62.67
2022-11-12T03:31:36.595Z,63.26
2022-11-12T03:32:08.307Z,63.47
2022-11-12T03:32:40.035Z,63.45
2022-11-12T03:33:13.745Z,63.16
2022-11-12T03:33:45.608Z,62.81
2022-11-12T03:34:17.351Z,62.29
2022-11-12T03:34:52.972Z,61.79
2022-11-12T03:35:27.715Z,61.43
2022-11-12T03:35:59.791Z,60.90
2022-11-12T03:36:31.598Z,60.50
2022-11-12T03:37:04.231Z,60.20
2022-11-12T03:37:36.413Z,59.87
2022-11-12T03:38:08.490Z,59.45
2022-11-12T03:38:40.227Z,59.10
2022-11-12T03:39:11.988Z,58.82
2022-11-12T03:39:43.755Z,58.82
2022-11-12T03:40:17.656Z,59.02
2022-11-12T03:40:49.632Z,59.41
2022-11-12T03:41:21.542Z,59.92
2022-11-12T03:41:53.412Z,60.45
2022-11-12T03:42:25.371Z,61.01
2022-11-12T03:42:57.509Z,61.54
2022-11-12T03:43:29.440Z,62.06
2022-11-12T03:44:01.242Z,62.58
2022-11-12T03:44:33.478Z,63.10
2022-11-12T03:45:05.824Z,63.62
2022-11-12T03:45:37.741Z,63.81
2022-11-12T03:46:09.647Z,63.61
2022-11-12T03:46:44.408Z,63.18
2022-11-12T03:47:16.359Z,62.66
2022-11-12T03:47:51.091Z,61.95
2022-11-12T03:48:22.985Z,61.36
2022-11-12T03:48:54.776Z,60.83
2022-11-12T03:49:26.567Z,60.44
2022-11-12T03:49:58.359Z,60.12
2022-11-12T03:50:30.272Z,59.85
2022-11-12T03:51:02.087Z,59.71
2022-11-12T03:51:33.765Z,59.68
2022-11-12T03:52:05.562Z,59.48
2022-11-12T03:52:37.849Z,59.04
2022-11-12T03:53:09.704Z,58.65
2022-11-12T03:53:41.965Z,58.54
2022-11-12T03:54:13.844Z,58.65
2022-11-12T03:54:45.679Z,59.02
2022-11-12T03:55:19.800Z,59.51
2022-11-12T03:55:51.717Z,59.98
2022-11-12T03:56:23.760Z,60.58
2022-11-12T03:56:55.491Z,61.10
2022-11-12T03:57:27.152Z,61.62
2022-11-12T03:57:59.244Z,62.12
2022-11-12T03:58:31.128Z,62.62
2022-11-12T03:59:03.724Z,63.15
2022-11-12T03:59:35.499Z,63.48
2022-11-12T04:00:09.930Z,63.53
2022-11-12T04:00:42.015Z,63.44
2022-11-12T04:01:13.825Z,63.15
2022-11-12T04:01:45.669Z,62.61
2022-11-12T04:02:17.468Z,61.90
2022-11-12T04:02:49.892Z,61.16
2022-11-12T04:03:21.601Z,60.40
2022-11-12T04:03:53.446Z,59.57
2022-11-12T04:04:45.122Z,58.93
2022-11-12T04:05:35.552Z,58.35
2022-11-12T04:06:26.904Z,57.82
2022-11-12T04:07:16.805Z,57.37
2022-11-12T04:08:08.262Z,58.06
2022-11-12T04:08:40.397Z,59.30
2022-11-12T04:09:12.347Z,60.48
2022-11-12T04:09:44.889Z,61.06
2022-11-12T04:10:16.821Z,61.56
2022-11-12T04:10:48.934Z,62.07
2022-11-12T04:11:20.743Z,62.56
2022-11-12T04:11:52.445Z,63.12
2022-11-12T04:12:42.795Z,63.59
2022-11-12T04:13:29.911Z,64.25
2022-11-12T04:14:01.884Z,63.57
2022-11-12T04:14:33.781Z,62.34
2022-11-12T04:15:05.869Z,61.58
2022-11-12T04:15:37.877Z,60.98
2022-11-12T04:16:39.012Z,60.38
2022-11-12T04:17:29.597Z,60.42
2022-11-12T04:18:19.884Z,59.89
2022-11-12T04:19:12.415Z,59.50
2022-11-12T04:20:03.037Z,58.88
2022-11-12T04:20:53.405Z,58.88
2022-11-12T04:21:50.342Z,59.40
2022-11-12T04:22:22.279Z,59.88
2022-11-12T04:22:54.179Z,61.06
2022-11-12T04:23:25.963Z,61.70
2022-11-12T04:23:57.974Z,62.21
2022-11-12T04:24:51.488Z,62.70
2022-11-12T04:25:41.698Z,63.59
2022-11-12T04:26:25.269Z,64.09
2022-11-12T04:26:57.123Z,63.21
2022-11-12T04:27:31.661Z,61.94
2022-11-12T04:28:03.525Z,61.18
2022-11-12T04:28:35.352Z,60.36
2022-11-12T04:29:25.762Z,59.72
2022-11-12T04:30:16.105Z,59.52
2022-11-12T04:30:47.862Z,58.42
2022-11-12T04:31:19.674Z,58.35
2022-11-12T04:31:51.539Z,58.65
2022-11-12T04:32:23.578Z,59.08
2022-11-12T04:32:56.345Z,59.59
2022-11-12T04:33:28.211Z,60.12
2022-11-12T04:34:20.128Z,60.71
2022-11-12T04:34:52.380Z,60.93
2022-11-12T04:35:27.207Z,62.06
2022-11-12T04:35:59.036Z,62.61
2022-11-12T04:36:30.826Z,63.27
2022-11-12T04:37:04.132Z,63.57
2022-11-12T04:37:46.335Z,63.51
2022-11-12T04:38:18.181Z,63.36
2022-11-12T04:38:50.044Z,62.50
2022-11-12T04:39:21.980Z,61.89
2022-11-12T04:39:53.980Z,61.25
2022-11-12T04:40:45.448Z,60.59
2022-11-12T04:41:35.714Z,60.58
2022-11-12T04:42:27.675Z,59.99
2022-11-12T04:43:18.826Z,59.17
2022-11-12T04:44:09.312Z,58.20
2022-11-12T04:44:56.519Z,58.11
2022-11-12T04:45:28.304Z,58.58
2022-11-12T04:46:02.106Z,59.46
2022-11-12T04:46:33.842Z,59.91
2022-11-12T04:47:05.917Z,60.51
2022-11-12T04:47:40.452Z,61.09
2022-11-12T04:48:12.563Z,61.66
2022-11-12T04:48:44.604Z,62.25
2022-11-12T04:49:16.307Z,62.72
2022-11-12T04:49:48.068Z,63.23
2022-11-12T04:50:19.915Z,63.43
2022-11-12T04:50:58.440Z,63.23
2022-11-12T04:51:50.402Z,62.88
2022-11-12T04:52:22.272Z,62.57
2022-11-12T04:52:53.998Z,61.30
2022-11-12T04:53:26.510Z,60.68
2022-11-12T04:53:58.212Z,60.10
2022-11-12T04:54:29.980Z,59.51
2022-11-12T04:55:01.775Z,58.94
2022-11-12T04:55:33.464Z,58.43
2022-11-12T04:56:05.384Z,58.22
2022-11-12T04:56:37.116Z,58.32
2022-11-12T04:57:09.083Z,58.71
2022-11-12T04:57:41.042Z,59.17
2022-11-12T04:58:12.761Z,59.75
2022-11-12T04:58:44.602Z,60.33
2022-11-12T04:59:16.289Z,60.89
2022-11-12T04:59:48.266Z,61.43
2022-11-12T05:00:20.433Z,62.01
2022-11-12T05:00:52.381Z,62.57
2022-11-12T05:01:24.165Z,63.11
2022-11-12T05:01:56.050Z,63.62
2022-11-12T05:02:27.855Z,63.77
2022-11-12T05:02:59.731Z,63.60
2022-11-12T05:03:31.710Z,63.21
2022-11-12T05:04:03.877Z,62.61
2022-11-12T05:04:35.640Z,61.97
2022-11-12T05:05:07.969Z,61.40
2022-11-12T05:05:39.963Z,60.90
2022-11-12T05:06:30.444Z,60.43
2022-11-12T05:07:02.395Z,60.62
2022-11-12T05:07:34.496Z,59.53
2022-11-12T05:08:06.353Z,58.97
2022-11-12T05:08:38.478Z,58.53
2022-11-12T05:09:10.355Z,58.34
2022-11-12T05:09:42.386Z,58.48
2022-11-12T05:10:14.456Z,58.84
2022-11-12T05:10:46.405Z,59.34
2022-11-12T05:11:18.124Z,59.89
2022-11-12T05:11:50.827Z,60.51
2022-11-12T05:12:22.703Z,61.11
2022-11-12T05:12:54.875Z,61.71
2022-11-12T05:13:28.762Z,62.24
2022-11-12T05:14:00.550Z,62.68
2022-11-12T05:14:32.466Z,63.27
2022-11-12T05:15:05.018Z,63.56
2022-11-12T05:15:36.795Z,63.59
2022-11-12T05:16:08.701Z,63.38
2022-11-12T05:16:40.732Z,63.11
2022-11-12T05:17:12.514Z,62.80
2022-11-12T05:17:45.006Z,62.51
2022-11-12T05:18:16.898Z,62.25
2022-11-12T05:18:48.776Z,61.96
2022-11-12T05:19:20.728Z,61.72
2022-11-12T05:19:52.565Z,61.39
2022-11-12T05:20:24.362Z,61.06
2022-11-12T05:20:56.097Z,60.65
2022-11-12T05:21:46.729Z,60.28
2022-11-12T05:22:42.030Z,60.37
2022-11-12T05:23:10.555Z,59.94
2022-11-12T05:23:42.288Z,58.93
2022-11-12T05:24:33.688Z,58.43
2022-11-12T05:25:07.713Z,58.09
2022-11-12T05:25:39.541Z,58.49
2022-11-12T05:26:11.496Z,58.93
2022-11-12T05:26:43.360Z,59.37
2022-11-12T05:27:20.938Z,59.89
2022-11-12T05:27:52.941Z,60.27
2022-11-12T05:28:25.394Z,61.00
2022-11-12T05:28:57.508Z,61.51
2022-11-12T05:29:29.355Z,62.09
2022-11-12T05:30:01.342Z,62.61
2022-11-12T05:30:33.159Z,63.10
2022-11-12T05:31:05.148Z,63.42
2022-11-12T05:31:36.854Z,63.32
2022-11-12T05:32:11.020Z,62.88
2022-11-12T05:32:42.885Z,62.17
2022-11-12T05:33:14.649Z,61.23
2022-11-12T05:33:46.483Z,60.55
2022-11-12T05:34:22.721Z,59.93
2022-11-12T05:34:55.148Z,59.51
2022-11-12T05:35:26.890Z,58.98
2022-11-12T05:36:00.045Z,58.58
2022-11-12T05:36:32.000Z,58.44
2022-11-12T05:37:06.170Z,58.61
2022-11-12T05:37:38.512Z,58.94
2022-11-12T05:38:10.602Z,59.44
2022-11-12T05:38:42.449Z,59.95
2022-11-12T05:39:14.373Z,60.52
2022-11-12T05:39:46.359Z,61.15
2022-11-12T05:40:18.344Z,61.70
2022-11-12T05:40:50.153Z,62.23
2022-11-12T05:41:21.937Z,62.69
2022-11-12T05:42:11.776Z,63.18
2022-11-12T05:42:44.969Z,63.65
2022-11-12T05:43:16.883Z,63.19
2022-11-12T05:43:48.707Z,62.91
2022-11-12T05:44:21.035Z,62.40
2022-11-12T05:44:53.019Z,61.86
2022-11-12T05:45:25.049Z,61.21
2022-11-12T05:45:56.873Z,60.61
2022-11-12T05:46:28.989Z,60.09
2022-11-12T05:47:00.870Z,59.56
2022-11-12T05:47:32.737Z,59.18
2022-11-12T05:48:04.825Z,58.69
2022-11-12T05:48:36.780Z,58.54
2022-11-12T05:49:08.725Z,58.61
2022-11-12T05:49:40.488Z,58.88
2022-11-12T05:50:12.391Z,59.32
2022-11-12T05:51:06.180Z,59.83
2022-11-12T05:51:36.437Z,60.23
2022-11-12T05:52:08.209Z,61.10
2022-11-12T05:52:40.045Z,61.70
2022-11-12T05:53:11.968Z,62.25
2022-11-12T05:53:43.787Z,62.79
2022-11-12T05:54:15.662Z,63.35
2022-11-12T05:54:47.630Z,63.58
2022-11-12T05:55:19.433Z,63.35
2022-11-12T05:55:51.296Z,62.85
2022-11-12T05:56:23.073Z,62.23
2022-11-12T05:56:54.969Z,61.64
2022-11-12T05:57:27.540Z,61.06
2022-11-12T05:58:04.484Z,60.63
2022-11-12T05:58:36.707Z,60.27
2022-11-12T05:59:10.575Z,59.74
2022-11-12T05:59:42.420Z,59.34
2022-11-12T06:00:14.704Z,58.88
2022-11-12T06:00:47.630Z,58.69
2022-11-12T06:01:19.839Z,58.73
2022-11-12T06:01:51.675Z,59.01
2022-11-12T06:02:23.592Z,59.48
2022-11-12T06:02:58.282Z,60.03
2022-11-12T06:03:30.691Z,60.46
2022-11-12T06:04:02.562Z,61.06
2022-11-12T06:04:34.634Z,61.65
2022-11-12T06:05:07.197Z,62.24
2022-11-12T06:05:39.530Z,62.70
2022-11-12T06:06:11.607Z,63.24
2022-11-12T06:06:44.519Z,63.42
2022-11-12T06:07:16.332Z,63.27
2022-11-12T06:07:48.157Z,62.87
2022-11-12T06:08:19.975Z,62.31
2022-11-12T06:08:51.756Z,61.74
2022-11-12T06:09:23.394Z,61.17
2022-11-12T06:09:55.193Z,60.64
2022-11-12T06:10:27.596Z,60.27
2022-11-12T06:10:59.598Z,59.88
2022-11-12T06:11:31.688Z,59.49
2022-11-12T06:12:06.339Z,59.07
2022-11-12T06:12:38.207Z,58.77
2022-11-12T06:13:10.044Z,58.66
2022-11-12T06:13:41.869Z,58.84
2022-11-12T06:14:13.703Z,59.24
2022-11-12T06:14:46.001Z,59.74
2022-11-12T06:15:18.564Z,60.23
2022-11-12T06:15:52.075Z,60.73
2022-11-12T06:16:23.985Z,61.23
2022-11-12T06:16:55.856Z,61.80
2022-11-12T06:17:27.742Z,62.33
2022-11-12T06:17:59.578Z,62.86
2022-11-12T06:18:31.501Z,63.40
2022-11-12T06:19:04.539Z,63.65
2022-11-12T06:19:36.373Z,63.56
2022-11-12T06:20:08.716Z,63.10
2022-11-12T06:20:40.724Z,62.60
2022-11-12T06:21:22.532Z,62.00
2022-11-12T06:21:54.540Z,61.52
2022-11-12T06:22:26.892Z,60.86
2022-11-12T06:22:58.888Z,60.45
2022-11-12T06:23:30.989Z,60.07
2022-11-12T06:24:03.143Z,59.69
2022-11-12T06:24:35.667Z,59.40
2022-11-12T06:25:07.879Z,59.18
2022-11-12T06:25:40.122Z,58.97
2022-11-12T06:26:12.369Z,58.93
2022-11-12T06:26:44.238Z,59.17
2022-11-12T06:27:16.040Z,59.58
2022-11-12T06:27:48.026Z,60.03
2022-11-12T06:28:19.872Z,60.58
2022-11-12T06:28:52.610Z,61.13
2022-11-12T06:29:24.601Z,61.65
2022-11-12T06:29:56.994Z,62.17
2022-11-12T06:30:29.039Z,62.69
2022-11-12T06:31:00.925Z,63.21
2022-11-12T06:31:32.809Z,63.52
2022-11-12T06:32:04.778Z,63.46
2022-11-12T06:32:36.848Z,63.17
2022-11-12T06:33:08.570Z,62.76
2022-11-12T06:33:41.528Z,62.33
2022-11-12T06:34:13.436Z,61.97
2022-11-12T06:34:45.364Z,61.43
2022-11-12T06:35:18.726Z,60.96
2022-11-12T06:35:57.068Z,60.66
2022-11-12T06:36:28.847Z,60.40
2022-11-12T06:37:00.704Z,60.03
2022-11-12T06:37:32.662Z,59.69
2022-11-12T06:38:04.499Z,59.34
2022-11-12T06:38:39.472Z,58.84
2022-11-12T06:39:11.441Z,58.58
2022-11-12T06:39:43.211Z,58.71
2022-11-12T06:40:14.863Z,59.00
2022-11-12T06:40:46.571Z,59.43
2022-11-12T06:41:18.486Z,59.94
2022-11-12T06:41:50.562Z,60.50
2022-11-12T06:42:22.416Z,61.06
2022-11-12T06:42:58.161Z,61.60
2022-11-12T06:43:33.092Z,62.10
2022-11-12T06:44:04.969Z,62.70
2022-11-12T06:44:36.752Z,63.42
2022-11-12T06:45:09.604Z,63.65
2022-11-12T06:45:41.344Z,63.48
2022-11-12T06:46:15.809Z,62.92
2022-11-12T06:46:47.642Z,62.33
2022-11-12T06:47:19.506Z,61.50
2022-11-12T06:47:51.482Z,60.77
2022-11-12T06:48:23.363Z,60.16
2022-11-12T06:48:55.326Z,59.71
2022-11-12T06:49:27.226Z,59.28
2022-11-12T06:49:59.140Z,58.75
2022-11-12T06:50:31.080Z,58.48
2022-11-12T06:51:08.751Z,58.53
2022-11-12T06:51:40.848Z,58.82
2022-11-12T06:52:16.716Z,59.42
2022-11-12T06:52:48.926Z,59.83
2022-11-12T06:53:20.877Z,60.47
2022-11-12T06:53:54.733Z,61.04
2022-11-12T06:54:26.605Z,61.55
2022-11-12T06:54:58.223Z,62.16
2022-11-12T06:55:30.057Z,62.64
2022-11-12T06:56:04.424Z,63.03
2022-11-12T06:56:36.258Z,63.30
2022-11-12T06:57:08.228Z,63.21
2022-11-12T06:57:40.123Z,62.88
2022-11-12T06:58:11.919Z,62.24
2022-11-12T06:58:43.849Z,61.66
2022-11-12T06:59:15.864Z,60.96
2022-11-12T06:59:47.671Z,60.25
2022-11-12T07:00:20.276Z,59.58
2022-11-12T07:00:52.129Z,58.98
2022-11-12T07:01:24.152Z,58.47
2022-11-12T07:01:55.968Z,58.22
2022-11-12T07:02:27.968Z,58.33
2022-11-12T07:02:59.805Z,58.70
2022-11-12T07:03:31.783Z,59.17
2022-11-12T07:04:03.891Z,59.77
2022-11-12T07:04:35.609Z,60.44
2022-11-12T07:05:07.638Z,61.01
2022-11-12T07:05:39.367Z,61.59
2022-11-12T07:06:18.651Z,62.07
2022-11-12T07:06:50.726Z,62.34
2022-11-12T07:07:22.580Z,62.99
2022-11-12T07:07:54.579Z,63.52
2022-11-12T07:08:26.792Z,63.61
2022-11-12T07:08:59.017Z,63.29
2022-11-12T07:09:30.923Z,62.67
2022-11-12T07:10:03.710Z,61.87
2022-11-12T07:10:35.527Z,61.11
2022-11-12T07:11:07.901Z,60.40